createdAt,value
2023-03-17T00:00:51.059Z,1013.23
2023-03-17T00:01:51.104Z,1013.23
2023-03-17T00:02:51.082Z,1013.19
2023-03-17T00:03:51.063Z,1013.22
2023-03-17T00:04:50.990Z,1013.23
2023-03-17T00:05:50.990Z,1013.23
2023-03-17T00:06:50.994Z,1013.21
2023-03-17T00:07:51.002Z,1013.17
2023-03-17T00:08:50.957Z,1013.21
2023-03-17T00:09:50.929Z,1013.17
2023-03-17T00:10:50.914Z,1013.17
2023-03-17T00:11:50.953Z,1013.16
2023-03-17T00:12:50.899Z,1013.18
2023-03-17T00:13:50.901Z,1013.12
2023-03-17T00:14:50.898Z,1013.15
2023-03-17T00:15:50.931Z,1013.08
2023-03-17T00:16:50.847Z,1013.04
2023-03-17T00:17:50.848Z,1013.01
2023-03-17T00:18:50.820Z,1013.06
2023-03-17T00:19:50.814Z,1013.02
2023-03-17T00:20:50.804Z,1013.02
2023-03-17T00:21:50.831Z,1012.99
2023-03-17T00:22:50.768Z,1012.98
2023-03-17T00:23:50.778Z,1012.90
2023-03-17T00:24:50.794Z,1012.93
2023-03-17T00:25:50.747Z,1012.97
2023-03-17T00:26:50.721Z,1012.92
2023-03-17T00:27:50.716Z,1012.99
2023-03-17T00:28:50.703Z,1012.98
2023-03-17T00:29:50.728Z,1012.99
2023-03-17T00:30:50.693Z,1012.99
2023-03-17T00:31:50.702Z,1013.02
2023-03-17T00:32:50.729Z,1013.03
2023-03-17T00:33:50.633Z,1012.98
2023-03-17T00:34:50.620Z,1013.06
2023-03-17T00:35:50.633Z,1012.98
2023-03-17T00:36:50.593Z,1012.96
2023-03-17T00:37:50.592Z,1012.92
2023-03-17T00:38:50.577Z,1012.95
2023-03-17T00:39:50.568Z,1012.99
2023-03-17T00:40:50.532Z,1012.94
2023-03-17T00:41:52.207Z,1012.92
2023-03-17T00:42:50.516Z,1012.94
2023-03-17T00:43:50.540Z,1012.85
2023-03-17T00:44:50.500Z,1012.84
2023-03-17T00:45:50.478Z,1012.79
2023-03-17T00:46:50.464Z,1012.75
2023-03-17T00:47:50.456Z,1012.74
2023-03-17T00:48:50.482Z,1012.77
2023-03-17T00:49:50.429Z,1012.72
2023-03-17T00:50:50.478Z,1012.71
2023-03-17T00:51:50.418Z,1012.73
2023-03-17T00:52:50.398Z,1012.68
2023-03-17T00:53:50.415Z,1012.62
2023-03-17T00:54:50.378Z,1012.58
2023-03-17T00:55:50.370Z,1012.61
2023-03-17T00:56:50.325Z,1012.61
2023-03-17T00:57:50.347Z,1012.59
2023-03-17T00:58:50.309Z,1012.62
2023-03-17T00:59:50.302Z,1012.56
2023-03-17T01:00:50.312Z,1012.52
2023-03-17T01:01:50.315Z,1012.49
2023-03-17T01:02:50.246Z,1012.45
2023-03-17T01:03:50.254Z,1012.43
2023-03-17T01:04:59.713Z,1012.47
2023-03-17T01:05:51.231Z,1012.42
2023-03-17T01:06:50.210Z,1012.40
2023-03-17T01:07:50.201Z,1012.38
2023-03-17T01:08:50.165Z,1012.37
2023-03-17T01:09:50.178Z,1012.35
2023-03-17T01:10:50.154Z,1012.34
2023-03-17T01:11:50.134Z,1012.37
2023-03-17T01:12:50.144Z,1012.34
2023-03-17T01:13:50.120Z,1012.34
2023-03-17T01:14:50.101Z,1012.41
2023-03-17T01:15:50.125Z,1012.36
2023-03-17T01:16:50.083Z,1012.34
2023-03-17T01:17:50.070Z,1012.33
2023-03-17T01:18:50.090Z,1012.32
2023-03-17T01:19:50.068Z,1012.39
2023-03-17T01:20:50.015Z,1012.39
2023-03-17T01:21:50.026Z,1012.44
2023-03-17T01:22:50.007Z,1012.40
2023-03-17T01:23:57.023Z,1012.35
2023-03-17T01:24:49.968Z,1012.38
2023-03-17T01:25:49.984Z,1012.31
2023-03-17T01:26:49.952Z,1012.33
2023-03-17T01:27:49.944Z,1012.30
2023-03-17T01:28:49.926Z,1012.25
2023-03-17T01:29:49.926Z,1012.26
2023-03-17T01:30:49.915Z,1012.32
2023-03-17T01:31:49.940Z,1012.32
2023-03-17T01:32:49.919Z,1012.22
2023-03-17T01:33:49.881Z,1012.22
2023-03-17T01:34:49.860Z,1012.22
2023-03-17T01:35:49.845Z,1012.22
2023-03-17T01:36:49.810Z,1012.18
2023-03-17T01:37:49.801Z,1012.08
2023-03-17T01:38:49.838Z,1012.13
2023-03-17T01:39:49.875Z,1012.04
2023-03-17T01:40:49.877Z,1012.05
2023-03-17T01:41:49.778Z,1012.07
2023-03-17T01:42:49.730Z,1012.03
2023-03-17T01:43:49.752Z,1012.07
2023-03-17T01:44:49.723Z,1012.02
2023-03-17T01:45:49.783Z,1012.04
2023-03-17T01:46:49.714Z,1012.03
2023-03-17T01:47:49.695Z,1012.04
2023-03-17T01:48:49.660Z,1012.08
2023-03-17T01:49:49.682Z,1012.08
2023-03-17T01:50:49.636Z,1012.05
2023-03-17T01:51:49.648Z,1012.10
2023-03-17T01:52:49.624Z,1012.10
2023-03-17T01:53:49.600Z,1012.04
2023-03-17T01:54:49.606Z,1012.01
2023-03-17T01:55:49.585Z,1011.99
2023-03-17T01:56:49.562Z,1011.98
2023-03-17T01:57:49.551Z,1012.00
2023-03-17T01:58:49.531Z,1012.00
2023-03-17T01:59:49.584Z,1011.99
2023-03-17T02:00:49.536Z,1011.95
2023-03-17T02:01:49.543Z,1011.93
2023-03-17T02:02:49.484Z,1011.90
2023-03-17T02:03:49.534Z,1011.97
2023-03-17T02:04:49.450Z,1011.94
2023-03-17T02:05:49.465Z,1011.91
2023-03-17T02:06:58.612Z,1011.90
2023-03-17T02:07:50.444Z,1011.84
2023-03-17T02:08:49.400Z,1011.72
2023-03-17T02:09:49.407Z,1011.70
2023-03-17T02:10:49.396Z,1011.62
2023-03-17T02:11:49.388Z,1011.66
2023-03-17T02:12:49.365Z,1011.63
2023-03-17T02:13:49.381Z,1011.68
2023-03-17T02:14:49.320Z,1011.66
2023-03-17T02:15:49.333Z,1011.66
2023-03-17T02:16:49.401Z,1011.73
2023-03-17T02:17:49.314Z,1011.77
2023-03-17T02:18:49.292Z,1011.80
2023-03-17T02:19:49.262Z,1011.79
2023-03-17T02:20:49.262Z,1011.76
2023-03-17T02:21:49.251Z,1011.77
2023-03-17T02:22:49.249Z,1011.72
2023-03-17T02:23:49.232Z,1011.68
2023-03-17T02:24:49.197Z,1011.68
2023-03-17T02:25:49.204Z,1011.65
2023-03-17T02:26:49.172Z,1011.67
2023-03-17T02:27:49.180Z,1011.60
2023-03-17T02:28:49.165Z,1011.54
2023-03-17T02:29:49.156Z,1011.55
2023-03-17T02:30:49.188Z,1011.54
2023-03-17T02:31:49.127Z,1011.47
2023-03-17T02:32:49.144Z,1011.50
2023-03-17T02:33:49.093Z,1011.48
2023-03-17T02:34:49.093Z,1011.48
2023-03-17T02:35:49.143Z,1011.49
2023-03-17T02:36:49.108Z,1011.51
2023-03-17T02:37:49.047Z,1011.50
2023-03-17T02:38:49.022Z,1011.50
2023-03-17T02:39:49.045Z,1011.56
2023-03-17T02:40:49.004Z,1011.55
2023-03-17T02:41:48.996Z,1011.57
2023-03-17T02:42:48.973Z,1011.56
2023-03-17T02:43:48.962Z,1011.50
2023-03-17T02:44:48.957Z,1011.58
2023-03-17T02:45:48.992Z,1011.53
2023-03-17T02:46:48.927Z,1011.54
2023-03-17T02:47:48.912Z,1011.54
2023-03-17T02:48:48.893Z,1011.53
2023-03-17T02:49:48.886Z,1011.57
2023-03-17T02:50:48.898Z,1011.50
2023-03-17T02:51:48.881Z,1011.45
2023-03-17T02:52:48.879Z,1011.42
2023-03-17T02:53:48.862Z,1011.46
2023-03-17T02:54:48.843Z,1011.42
2023-03-17T02:55:48.817Z,1011.47
2023-03-17T02:56:48.810Z,1011.44
2023-03-17T02:57:48.794Z,1011.39
2023-03-17T02:58:48.775Z,1011.41
2023-03-17T02:59:48.780Z,1011.38
2023-03-17T03:00:48.762Z,1011.37
2023-03-17T03:01:48.850Z,1011.42
2023-03-17T03:02:48.805Z,1011.38
2023-03-17T03:03:48.738Z,1011.42
2023-03-17T03:04:48.742Z,1011.45
2023-03-17T03:05:48.686Z,1011.44
2023-03-17T03:06:48.689Z,1011.44
2023-03-17T03:07:48.685Z,1011.41
2023-03-17T03:08:48.659Z,1011.44
2023-03-17T03:09:48.636Z,1011.36
2023-03-17T03:10:48.637Z,1011.36
2023-03-17T03:11:48.643Z,1011.40
2023-03-17T03:12:48.613Z,1011.35
2023-03-17T03:13:48.605Z,1011.40
2023-03-17T03:14:48.565Z,1011.42
2023-03-17T03:15:48.621Z,1011.38
2023-03-17T03:16:48.543Z,1011.39
2023-03-17T03:17:48.536Z,1011.40
2023-03-17T03:18:48.559Z,1011.26
2023-03-17T03:19:48.515Z,1011.28
2023-03-17T03:20:48.510Z,1011.34
2023-03-17T03:21:48.536Z,1011.33
2023-03-17T03:22:48.488Z,1011.34
2023-03-17T03:23:48.475Z,1011.37
2023-03-17T03:24:48.474Z,1011.36
2023-03-17T03:25:48.437Z,1011.33
2023-03-17T03:26:48.434Z,1011.40
2023-03-17T03:27:48.409Z,1011.42
2023-03-17T03:28:48.498Z,1011.37
2023-03-17T03:29:48.384Z,1011.46
2023-03-17T03:30:48.439Z,1011.49
2023-03-17T03:31:48.447Z,1011.49
2023-03-17T03:32:48.397Z,1011.54
2023-03-17T03:33:48.361Z,1011.51
2023-03-17T03:34:48.337Z,1011.49
2023-03-17T03:35:48.366Z,1011.50
2023-03-17T03:36:48.297Z,1011.48
2023-03-17T03:37:48.285Z,1011.49
2023-03-17T03:38:48.294Z,1011.55
2023-03-17T03:39:48.260Z,1011.55
2023-03-17T03:40:48.249Z,1011.62
2023-03-17T03:41:48.226Z,1011.62
2023-03-17T03:42:48.228Z,1011.60
2023-03-17T03:43:48.218Z,1011.56
2023-03-17T03:44:48.194Z,1011.60
2023-03-17T03:45:48.186Z,1011.56
2023-03-17T03:46:48.252Z,1011.60
2023-03-17T03:47:48.194Z,1011.60
2023-03-17T03:48:48.163Z,1011.56
2023-03-17T03:49:48.139Z,1011.55
2023-03-17T03:50:48.103Z,1011.50
2023-03-17T03:51:48.119Z,1011.54
2023-03-17T03:52:48.082Z,1011.46
2023-03-17T03:53:48.087Z,1011.42
2023-03-17T03:54:48.062Z,1011.48
2023-03-17T03:55:48.066Z,1011.45
2023-03-17T03:56:48.032Z,1011.42
2023-03-17T03:57:48.057Z,1011.43
2023-03-17T03:58:48.008Z,1011.45
2023-03-17T03:59:48.003Z,1011.45
2023-03-17T04:00:47.970Z,1011.46
2023-03-17T04:01:47.973Z,1011.44
2023-03-17T04:02:47.981Z,1011.44
2023-03-17T04:03:47.963Z,1011.50
2023-03-17T04:04:47.974Z,1011.45
2023-03-17T04:05:47.952Z,1011.46
2023-03-17T04:06:47.912Z,1011.46
2023-03-17T04:07:47.924Z,1011.41
2023-03-17T04:08:47.869Z,1011.44
2023-03-17T04:09:47.875Z,1011.45
2023-03-17T04:10:47.854Z,1011.46
2023-03-17T04:11:47.870Z,1011.44
2023-03-17T04:12:47.845Z,1011.45
2023-03-17T04:13:47.844Z,1011.45
2023-03-17T04:14:47.819Z,1011.47
2023-03-17T04:15:47.849Z,1011.45
2023-03-17T04:16:47.807Z,1011.46
2023-03-17T04:17:47.788Z,1011.44
2023-03-17T04:18:47.818Z,1011.46
2023-03-17T04:19:47.740Z,1011.47
2023-03-17T04:20:47.757Z,1011.38
2023-03-17T04:21:47.765Z,1011.37
2023-03-17T04:22:47.689Z,1011.39
2023-03-17T04:23:47.696Z,1011.38
2023-03-17T04:24:47.699Z,1011.39
2023-03-17T04:25:47.671Z,1011.34
2023-03-17T04:26:47.660Z,1011.33
2023-03-17T04:27:47.628Z,1011.34
2023-03-17T04:28:47.619Z,1011.31
2023-03-17T04:29:47.644Z,1011.37
2023-03-17T04:30:47.598Z,1011.38
2023-03-17T04:31:47.676Z,1011.36
2023-03-17T04:32:47.640Z,1011.35
2023-03-17T04:33:47.564Z,1011.36
2023-03-17T04:34:47.554Z,1011.27
2023-03-17T04:35:47.573Z,1011.29
2023-03-17T04:36:47.507Z,1011.22
2023-03-17T04:37:47.512Z,1011.20
2023-03-17T04:38:47.500Z,1011.14
2023-03-17T04:39:47.476Z,1011.10
2023-03-17T04:40:47.460Z,1011.08
2023-03-17T04:41:47.484Z,1011.11
2023-03-17T04:42:47.443Z,1011.10
2023-03-17T04:43:47.422Z,1011.10
2023-03-17T04:44:47.417Z,1011.07
2023-03-17T04:45:47.455Z,1011.05
2023-03-17T04:46:47.421Z,1011.02
2023-03-17T04:47:47.410Z,1011.07
2023-03-17T04:48:47.356Z,1011.13
2023-03-17T04:49:47.365Z,1011.04
2023-03-17T04:50:47.329Z,1011.08
2023-03-17T04:51:47.347Z,1011.08
2023-03-17T04:52:47.321Z,1011.12
2023-03-17T04:53:47.333Z,1011.15
2023-03-17T04:54:47.294Z,1011.19
2023-03-17T04:55:47.281Z,1011.18
2023-03-17T04:56:47.274Z,1011.27
2023-03-17T04:57:47.253Z,1011.20
2023-03-17T04:58:47.237Z,1011.21
2023-03-17T04:59:47.219Z,1011.21
2023-03-17T05:00:47.222Z,1011.19
2023-03-17T05:01:47.196Z,1011.19
2023-03-17T05:02:47.187Z,1011.25
2023-03-17T05:03:47.183Z,1011.23
2023-03-17T05:04:47.199Z,1011.25
2023-03-17T05:05:47.154Z,1011.25
2023-03-17T05:06:47.152Z,1011.20
2023-03-17T05:07:47.123Z,1011.22
2023-03-17T05:08:47.121Z,1011.18
2023-03-17T05:09:47.100Z,1011.20
2023-03-17T05:10:47.081Z,1011.24
2023-03-17T05:11:47.079Z,1011.22
2023-03-17T05:12:47.062Z,1011.24
2023-03-17T05:13:47.042Z,1011.17
2023-03-17T05:14:47.036Z,1011.14
2023-03-17T05:15:47.021Z,1011.23
2023-03-17T05:16:47.041Z,1011.19
2023-03-17T05:17:47.008Z,1011.25
2023-03-17T05:18:47.031Z,1011.24
2023-03-17T05:19:46.976Z,1011.19
2023-03-17T05:20:46.975Z,1011.13
2023-03-17T05:21:46.929Z,1011.16
2023-03-17T05:22:46.926Z,1011.18
2023-03-17T05:23:46.924Z,1011.10
2023-03-17T05:24:46.912Z,1011.01
2023-03-17T05:25:46.917Z,1010.99
2023-03-17T05:26:46.911Z,1010.91
2023-03-17T05:27:46.894Z,1010.86
2023-03-17T05:28:46.872Z,1010.86
2023-03-17T05:29:46.841Z,1010.77
2023-03-17T05:30:46.862Z,1010.82
2023-03-17T05:31:46.836Z,1010.81
2023-03-17T05:32:46.892Z,1010.81
2023-03-17T05:33:46.810Z,1010.87
2023-03-17T05:34:46.767Z,1010.88
2023-03-17T05:35:46.797Z,1010.88
2023-03-17T05:36:46.760Z,1010.89
2023-03-17T05:37:46.736Z,1010.89
2023-03-17T05:38:46.794Z,1010.89
2023-03-17T05:39:46.697Z,1010.88
2023-03-17T05:40:46.698Z,1010.87
2023-03-17T05:41:46.677Z,1010.95
2023-03-17T05:42:46.683Z,1010.90
2023-03-17T05:43:46.661Z,1010.99
2023-03-17T05:44:46.669Z,1011.00
2023-03-17T05:45:46.670Z,1010.96
2023-03-17T05:46:46.632Z,1010.95
2023-03-17T05:47:46.600Z,1010.94
2023-03-17T05:48:46.627Z,1010.99
2023-03-17T05:49:46.576Z,1011.06
2023-03-17T05:50:46.579Z,1011.01
2023-03-17T05:51:46.565Z,1011.11
2023-03-17T05:52:46.560Z,1011.12
2023-03-17T05:53:46.534Z,1011.13
2023-03-17T05:54:46.540Z,1011.10
2023-03-17T05:55:46.500Z,1011.07
2023-03-17T05:56:46.490Z,1011.10
2023-03-17T05:57:46.505Z,1011.04
2023-03-17T05:58:46.507Z,1011.08
2023-03-17T05:59:46.461Z,1011.09
2023-03-17T06:00:46.450Z,1011.14
2023-03-17T06:01:46.454Z,1011.10
2023-03-17T06:02:46.503Z,1011.16
2023-03-17T06:03:46.515Z,1011.16
2023-03-17T06:04:46.413Z,1011.14
2023-03-17T06:05:46.372Z,1011.24
2023-03-17T06:06:46.397Z,1011.21
2023-03-17T06:07:54.039Z,1011.17
2023-03-17T06:08:47.357Z,1011.18
2023-03-17T06:09:46.350Z,1011.16
2023-03-17T06:10:46.319Z,1011.12
2023-03-17T06:11:46.369Z,1011.16
2023-03-17T06:12:46.306Z,1011.13
2023-03-17T06:13:46.276Z,1011.17
2023-03-17T06:14:46.279Z,1011.13
2023-03-17T06:15:46.267Z,1011.11
2023-03-17T06:16:46.274Z,1011.09
2023-03-17T06:17:46.244Z,1011.10
2023-03-17T06:18:46.226Z,1011.05
2023-03-17T06:19:48.366Z,1010.96
2023-03-17T06:20:46.210Z,1011.04
2023-03-17T06:21:46.206Z,1010.93
2023-03-17T06:23:02.411Z,1010.97
2023-03-17T06:23:47.173Z,1010.94
2023-03-17T06:24:46.136Z,1010.97
2023-03-17T06:25:46.122Z,1010.92
2023-03-17T06:26:46.132Z,1010.96
2023-03-17T06:27:46.133Z,1011.02
2023-03-17T06:28:46.089Z,1010.98
2023-03-17T06:29:46.085Z,1010.97
2023-03-17T06:30:46.184Z,1010.93
2023-03-17T06:31:46.039Z,1010.90
2023-03-17T06:32:46.170Z,1010.91
2023-03-17T06:33:46.031Z,1010.96
2023-03-17T06:34:46.036Z,1010.94
2023-03-17T06:35:46.080Z,1010.99
2023-03-17T06:36:46.008Z,1011.01
2023-03-17T06:37:45.980Z,1011.02
2023-03-17T06:38:45.992Z,1011.00
2023-03-17T06:39:45.940Z,1011.08
2023-03-17T06:40:45.942Z,1011.12
2023-03-17T06:41:45.920Z,1011.10
2023-03-17T06:42:45.925Z,1011.16
2023-03-17T06:43:45.922Z,1011.19
2023-03-17T06:44:45.900Z,1011.14
2023-03-17T06:45:45.869Z,1011.02
2023-03-17T06:46:45.907Z,1011.02
2023-03-17T06:47:45.862Z,1011.05
2023-03-17T06:48:45.839Z,1011.04
2023-03-17T06:49:45.839Z,1010.92
2023-03-17T06:50:45.808Z,1010.97
2023-03-17T06:51:45.793Z,1010.96
2023-03-17T06:52:46.908Z,1010.93
2023-03-17T06:53:45.792Z,1011.02
2023-03-17T06:54:45.772Z,1010.95
2023-03-17T06:55:45.771Z,1011.03
2023-03-17T06:56:45.742Z,1010.98
2023-03-17T06:57:45.723Z,1010.97
2023-03-17T06:58:45.720Z,1010.97
2023-03-17T06:59:45.702Z,1010.91
2023-03-17T07:00:45.734Z,1010.85
2023-03-17T07:01:45.711Z,1010.85
2023-03-17T07:02:45.662Z,1010.81
2023-03-17T07:03:45.637Z,1010.76
2023-03-17T07:04:45.703Z,1010.75
2023-03-17T07:05:45.617Z,1010.72
2023-03-17T07:06:45.723Z,1010.81
2023-03-17T07:07:45.593Z,1010.83
2023-03-17T07:08:45.573Z,1010.86
2023-03-17T07:09:45.558Z,1010.83
2023-03-17T07:10:45.548Z,1010.91
2023-03-17T07:11:45.527Z,1010.93
2023-03-17T07:12:45.567Z,1010.81
2023-03-17T07:13:45.526Z,1010.85
2023-03-17T07:14:45.511Z,1010.81
2023-03-17T07:15:45.489Z,1010.76
2023-03-17T07:16:45.508Z,1010.70
2023-03-17T07:17:45.459Z,1010.69
2023-03-17T07:18:45.483Z,1010.64
2023-03-17T07:19:45.451Z,1010.69
2023-03-17T07:20:45.440Z,1010.70
2023-03-17T07:21:46.975Z,1010.77
2023-03-17T07:22:45.457Z,1010.77
2023-03-17T07:23:45.391Z,1010.73
2023-03-17T07:24:52.443Z,1010.72
2023-03-17T07:25:45.366Z,1010.68
2023-03-17T07:26:45.395Z,1010.64
2023-03-17T07:27:45.335Z,1010.67
2023-03-17T07:28:45.352Z,1010.66
2023-03-17T07:29:45.331Z,1010.52
2023-03-17T07:30:45.310Z,1010.55
2023-03-17T07:31:46.155Z,1010.46
2023-03-17T07:32:45.306Z,1010.44
2023-03-17T07:33:45.324Z,1010.38
2023-03-17T07:34:45.254Z,1010.45
2023-03-17T07:35:45.304Z,1010.43
2023-03-17T07:36:45.237Z,1010.34
2023-03-17T07:37:45.199Z,1010.38
2023-03-17T07:38:45.216Z,1010.41
2023-03-17T07:39:45.194Z,1010.29
2023-03-17T07:40:45.205Z,1010.23
2023-03-17T07:41:45.187Z,1010.19
2023-03-17T07:42:45.169Z,1010.12
2023-03-17T07:43:45.144Z,1009.99
2023-03-17T07:44:45.128Z,1009.94
2023-03-17T07:45:45.123Z,1009.96
2023-03-17T07:46:45.110Z,1010.04
2023-03-17T07:47:45.098Z,1010.11
2023-03-17T07:48:45.061Z,1010.20
2023-03-17T07:49:45.047Z,1010.28
2023-03-17T07:50:45.035Z,1010.24
2023-03-17T07:51:45.013Z,1010.18
2023-03-17T07:52:45.004Z,1010.04
2023-03-17T07:53:44.994Z,1010.02
2023-03-17T07:54:44.998Z,1009.92
2023-03-17T07:55:44.963Z,1009.89
2023-03-17T07:56:45.048Z,1010.01
2023-03-17T07:57:45.046Z,1010.10
2023-03-17T07:58:44.989Z,1010.18
2023-03-17T07:59:44.944Z,1010.21
2023-03-17T08:00:45.033Z,1010.24
2023-03-17T08:01:44.979Z,1010.20
2023-03-17T08:02:44.987Z,1010.21
2023-03-17T08:03:44.965Z,1010.28
2023-03-17T08:04:44.854Z,1010.33
2023-03-17T08:05:44.840Z,1010.31
2023-03-17T08:06:44.832Z,1010.31
2023-03-17T08:07:44.853Z,1010.31
2023-03-17T08:08:44.824Z,1010.27
2023-03-17T08:09:44.810Z,1010.30
2023-03-17T08:10:44.856Z,1010.26
2023-03-17T08:11:44.917Z,1010.30
2023-03-17T08:12:44.776Z,1010.30
2023-03-17T08:13:44.789Z,1010.35
2023-03-17T08:14:44.777Z,1010.31
2023-03-17T08:15:44.752Z,1010.25
2023-03-17T08:16:44.865Z,1010.12
2023-03-17T08:17:44.698Z,1010.11
2023-03-17T08:18:44.676Z,1010.06
2023-03-17T08:19:44.687Z,1010.13
2023-03-17T08:20:44.678Z,1010.17
2023-03-17T08:21:44.683Z,1010.25
2023-03-17T08:22:44.644Z,1010.19
2023-03-17T08:23:44.638Z,1010.23
2023-03-17T08:24:44.655Z,1010.15
2023-03-17T08:25:44.609Z,1010.18
2023-03-17T08:26:44.639Z,1010.12
2023-03-17T08:27:44.594Z,1010.11
2023-03-17T08:28:44.612Z,1010.17
2023-03-17T08:29:44.561Z,1010.21
2023-03-17T08:30:44.626Z,1010.15
2023-03-17T08:31:46.540Z,1010.12
2023-03-17T08:32:44.569Z,1010.08
2023-03-17T08:33:44.501Z,1010.02
2023-03-17T08:34:44.496Z,1009.98
2023-03-17T08:35:44.483Z,1009.95
2023-03-17T08:36:44.445Z,1010.00
2023-03-17T08:37:44.440Z,1010.02
2023-03-17T08:38:44.460Z,1009.93
2023-03-17T08:39:44.450Z,1009.90
2023-03-17T08:40:44.413Z,1009.85
2023-03-17T08:41:44.386Z,1009.86
2023-03-17T08:42:44.395Z,1009.97
2023-03-17T08:43:44.385Z,1010.02
2023-03-17T08:44:44.357Z,1009.93
2023-03-17T08:45:44.355Z,1009.97
2023-03-17T08:46:44.331Z,1010.03
2023-03-17T08:47:44.357Z,1009.99
2023-03-17T08:48:44.290Z,1010.00
2023-03-17T08:49:44.315Z,1009.96
2023-03-17T08:50:44.297Z,1010.01
2023-03-17T08:51:44.327Z,1009.97
2023-03-17T08:52:44.252Z,1009.92
2023-03-17T08:53:44.235Z,1010.03
2023-03-17T08:54:44.231Z,1009.99
2023-03-17T08:55:44.226Z,1009.92
2023-03-17T08:56:44.205Z,1009.91
2023-03-17T08:57:44.169Z,1009.92
2023-03-17T08:58:44.174Z,1009.87
2023-03-17T08:59:44.185Z,1009.88
2023-03-17T09:00:44.153Z,1009.80
2023-03-17T09:01:44.227Z,1009.81
2023-03-17T09:02:44.193Z,1009.73
2023-03-17T09:03:44.084Z,1009.74
2023-03-17T09:04:44.154Z,1009.72
2023-03-17T09:05:44.095Z,1009.71
2023-03-17T09:07:01.339Z,1009.71
2023-03-17T09:07:45.090Z,1009.63
2023-03-17T09:08:44.041Z,1009.66
2023-03-17T09:09:44.015Z,1009.65
2023-03-17T09:10:44.469Z,1009.62
2023-03-17T09:11:44.022Z,1009.64
2023-03-17T09:12:44.049Z,1009.56
2023-03-17T09:13:43.984Z,1009.56
2023-03-17T09:14:44.913Z,1009.57
2023-03-17T09:15:43.978Z,1009.50
2023-03-17T09:16:43.922Z,1009.49
2023-03-17T09:17:43.953Z,1009.48
2023-03-17T09:18:43.948Z,1009.48
2023-03-17T09:19:44.004Z,1009.48
2023-03-17T09:20:43.890Z,1009.34
2023-03-17T09:21:43.967Z,1009.34
2023-03-17T09:22:43.864Z,1009.37
2023-03-17T09:23:43.874Z,1009.37
2023-03-17T09:24:43.861Z,1009.34
2023-03-17T09:25:43.843Z,1009.35
2023-03-17T09:26:43.833Z,1009.38
2023-03-17T09:27:43.792Z,1009.32
2023-03-17T09:28:43.793Z,1009.35
2023-03-17T09:29:43.773Z,1009.38
2023-03-17T09:30:43.775Z,1009.29
2023-03-17T09:31:43.775Z,1009.31
2023-03-17T09:32:43.769Z,1009.30
2023-03-17T09:33:43.736Z,1009.31
2023-03-17T09:34:43.699Z,1009.31
2023-03-17T09:35:43.757Z,1009.35
2023-03-17T09:36:43.676Z,1009.36
2023-03-17T09:37:43.650Z,1009.32
2023-03-17T09:38:43.674Z,1009.32
2023-03-17T09:39:43.697Z,1009.31
2023-03-17T09:40:43.612Z,1009.31
2023-03-17T09:41:43.624Z,1009.37
2023-03-17T09:42:43.596Z,1009.28
2023-03-17T09:43:43.581Z,1009.35
2023-03-17T09:44:43.561Z,1009.27
2023-03-17T09:45:43.881Z,1009.29
2023-03-17T09:46:43.587Z,1009.28
2023-03-17T09:47:43.548Z,1009.17
2023-03-17T09:48:43.528Z,1009.24
2023-03-17T09:49:43.536Z,1009.25
2023-03-17T09:50:43.494Z,1009.26
2023-03-17T09:51:43.488Z,1009.20
2023-03-17T09:52:43.480Z,1009.27
2023-03-17T09:53:43.464Z,1009.24
2023-03-17T09:54:43.442Z,1009.20
2023-03-17T09:55:43.440Z,1009.18
2023-03-17T09:56:43.404Z,1009.16
2023-03-17T09:57:43.415Z,1009.24
2023-03-17T09:58:43.405Z,1009.26
2023-03-17T09:59:43.362Z,1009.27
2023-03-17T10:00:43.373Z,1009.30
2023-03-17T10:01:43.423Z,1009.31
2023-03-17T10:02:43.322Z,1009.29
2023-03-17T10:03:43.348Z,1009.25
2023-03-17T10:04:43.312Z,1009.26
2023-03-17T10:05:43.331Z,1009.29
2023-03-17T10:06:43.299Z,1009.30
2023-03-17T10:07:43.274Z,1009.27
2023-03-17T10:08:43.265Z,1009.25
2023-03-17T10:09:43.250Z,1009.27
2023-03-17T10:10:43.227Z,1009.23
2023-03-17T10:11:43.215Z,1009.28
2023-03-17T10:12:43.206Z,1009.28
2023-03-17T10:13:43.205Z,1009.27
2023-03-17T10:14:43.189Z,1009.28
2023-03-17T10:15:43.153Z,1009.21
2023-03-17T10:16:43.157Z,1009.13
2023-03-17T10:17:43.220Z,1009.18
2023-03-17T10:18:43.123Z,1009.19
2023-03-17T10:19:43.128Z,1009.11
2023-03-17T10:20:43.098Z,1009.03
2023-03-17T10:21:43.096Z,1009.09
2023-03-17T10:22:43.065Z,1009.11
2023-03-17T10:23:43.079Z,1009.10
2023-03-17T10:24:43.186Z,1009.02
2023-03-17T10:25:43.034Z,1009.10
2023-03-17T10:26:43.051Z,1009.12
2023-03-17T10:27:43.057Z,1009.09
2023-03-17T10:28:42.996Z,1009.12
2023-03-17T10:29:43.046Z,1009.07
2023-03-17T10:30:42.976Z,1009.15
2023-03-17T10:31:43.041Z,1009.15
2023-03-17T10:32:42.956Z,1009.06
2023-03-17T10:33:42.930Z,1009.10
2023-03-17T10:34:42.919Z,1009.08
2023-03-17T10:35:42.961Z,1009.09
2023-03-17T10:36:42.882Z,1009.12
2023-03-17T10:37:43.954Z,1009.02
2023-03-17T10:38:42.869Z,1009.02
2023-03-17T10:39:42.849Z,1009.10
2023-03-17T10:40:42.852Z,1009.05
2023-03-17T10:41:42.818Z,1009.11
2023-03-17T10:42:42.815Z,1009.12
2023-03-17T10:43:42.811Z,1009.09
2023-03-17T10:44:42.775Z,1009.04
2023-03-17T10:45:44.920Z,1009.04
2023-03-17T10:46:42.758Z,1008.99
2023-03-17T10:47:42.760Z,1008.99
2023-03-17T10:48:42.752Z,1008.98
2023-03-17T10:49:42.735Z,1008.98
2023-03-17T10:50:42.712Z,1008.99
2023-03-17T10:51:42.697Z,1008.96
2023-03-17T10:52:42.700Z,1009.01
2023-03-17T10:53:42.679Z,1009.02
2023-03-17T10:54:42.656Z,1009.01
2023-03-17T10:55:42.675Z,1009.00
2023-03-17T10:56:42.638Z,1008.96
2023-03-17T10:57:42.617Z,1008.91
2023-03-17T10:58:42.611Z,1008.90
2023-03-17T10:59:44.322Z,1008.80
2023-03-17T11:00:42.630Z,1008.74
2023-03-17T11:01:42.592Z,1008.79
2023-03-17T11:02:42.567Z,1008.75
2023-03-17T11:03:42.612Z,1008.72
2023-03-17T11:04:42.580Z,1008.73
2023-03-17T11:05:42.558Z,1008.67
2023-03-17T11:06:42.519Z,1008.69
2023-03-17T11:07:42.494Z,1008.66
2023-03-17T11:08:42.477Z,1008.66
2023-03-17T11:09:42.501Z,1008.65
2023-03-17T11:10:42.460Z,1008.63
2023-03-17T11:11:42.464Z,1008.68
2023-03-17T11:12:42.429Z,1008.65
2023-03-17T11:13:42.412Z,1008.66
2023-03-17T11:14:42.393Z,1008.63
2023-03-17T11:15:42.417Z,1008.66
2023-03-17T11:16:42.436Z,1008.63
2023-03-17T11:17:42.392Z,1008.57
2023-03-17T11:18:42.358Z,1008.60
2023-03-17T11:19:42.357Z,1008.61
2023-03-17T11:20:42.340Z,1008.55
2023-03-17T11:21:42.317Z,1008.61
2023-03-17T11:22:42.309Z,1008.66
2023-03-17T11:23:42.310Z,1008.58
2023-03-17T11:24:42.278Z,1008.66
2023-03-17T11:25:42.268Z,1008.56
2023-03-17T11:26:42.256Z,1008.59
2023-03-17T11:27:42.287Z,1008.58
2023-03-17T11:28:42.218Z,1008.57
2023-03-17T11:29:42.293Z,1008.61
2023-03-17T11:30:42.197Z,1008.61
2023-03-17T11:31:42.276Z,1008.52
2023-03-17T11:32:42.262Z,1008.54
2023-03-17T11:33:42.159Z,1008.54
2023-03-17T11:34:42.136Z,1008.55
2023-03-17T11:35:42.213Z,1008.58
2023-03-17T11:36:42.130Z,1008.58
2023-03-17T11:37:42.173Z,1008.53
2023-03-17T11:38:42.129Z,1008.53
2023-03-17T11:39:42.240Z,1008.52
2023-03-17T11:40:42.080Z,1008.48
2023-03-17T11:41:42.086Z,1008.53
2023-03-17T11:42:42.127Z,1008.52
2023-03-17T11:43:42.101Z,1008.50
2023-03-17T11:44:42.023Z,1008.49
2023-03-17T11:45:42.078Z,1008.44
2023-03-17T11:46:42.023Z,1008.50
2023-03-17T11:47:42.065Z,1008.53
2023-03-17T11:48:42.064Z,1008.48
2023-03-17T11:49:41.962Z,1008.41
2023-03-17T11:50:41.941Z,1008.46
2023-03-17T11:51:41.970Z,1008.40
2023-03-17T11:52:41.972Z,1008.44
2023-03-17T11:53:41.961Z,1008.42
2023-03-17T11:54:41.911Z,1008.40
2023-03-17T11:55:41.916Z,1008.38
2023-03-17T11:56:41.872Z,1008.44
2023-03-17T11:57:41.868Z,1008.40
2023-03-17T11:58:41.908Z,1008.42
2023-03-17T11:59:41.875Z,1008.39
2023-03-17T12:00:42.908Z,1008.35
2023-03-17T12:01:41.795Z,1008.23
2023-03-17T12:02:41.773Z,1008.29
2023-03-17T12:03:41.830Z,1008.27
2023-03-17T12:04:41.775Z,1008.28
2023-03-17T12:05:41.745Z,1008.20